Time;durP1;ratioP1;P1;durP2;ratioP2;P2;SDS_P1;SDS_P2;PMS_P1;PMS_P2;Temp;Humidity;BMP_temperature;BMP_pressure;BME280_temperature;BME280_humidity;BME280_pressure;Samples;Min_cycle;Max_cycle;Signal;HPM_P1;HPM_P2
2022/04/30 00:01:19;;;;;;;10.10;2.13;;;;;;;;;;5010548;28;20038;-89
2022/04/30 00:03:47;;;;;;;13.27;2.75;;;;;;;;;;4999055;28;20096;-89
2022/04/30 00:06:13;;;;;;;16.40;2.38;;;;;;;;;;5013666;28;20503;-89
2022/04/30 00:08:40;;;;;;;12.15;2.30;;;;;;;;;;4999557;28;20046;-90
2022/04/30 00:11:07;;;;;;;14.70;2.35;;;;;;;;;;4996391;28;20611;-95
2022/04/30 00:26:07;;;;;;;13.95;2.70;;;;;;;;;;5015433;28;20543;-94
2022/04/30 00:28:47;;;;;;;12.18;2.70;;;;;;;;;;4999909;28;20117;-93
2022/04/30 00:31:13;;;;;;;12.50;2.60;;;;;;;;;;4999281;28;20042;-95
2022/04/30 00:33:40;;;;;;;9.93;2.17;;;;;;;;;;4999985;28;20064;-94
2022/04/30 00:36:25;;;;;;;15.20;2.75;;;;;;;;;;5016756;28;20060;-95
2022/04/30 00:38:52;;;;;;;10.90;2.55;;;;;;;;;;4996000;28;20041;-93
2022/04/30 00:41:45;;;;;;;15.50;2.88;;;;;;;;;;5012607;28;20053;-94
2022/04/30 00:44:12;;;;;;;8.32;2.17;;;;;;;;;;4994892;28;20034;-94
2022/04/30 00:49:39;;;;;;;10.73;2.78;;;;;;;;;;5021533;28;20789;-95
2022/04/30 00:52:06;;;;;;;11.32;2.50;;;;;;;;;;4998514;28;20225;-96
2022/04/30 00:54:37;;;;;;;10.35;2.50;;;;;;;;;;4998667;28;20088;-93
2022/04/30 00:57:04;;;;;;;12.18;2.42;;;;;;;;;;4997201;28;20120;-93
2022/04/30 00:59:41;;;;;;;12.20;2.20;;;;;;;;;;4992083;28;20030;-93
2022/04/30 01:02:11;;;;;;;11.90;2.65;;;;;;;;;;5008166;28;20511;-94
2022/04/30 01:04:41;;;;;;;13.45;2.30;;;;;;;;;;5005472;28;20041;-92
2022/04/30 01:07:09;;;;;;;8.80;2.83;;;;;;;;;;4995738;28;20033;-93
2022/04/30 01:09:59;;;;;;;13.40;2.88;;;;;;;;;;4997593;28;20044;-93
2022/04/30 01:12:45;;;;;;;7.10;2.03;;;;;;;;;;4987822;28;20099;-93
2022/04/30 01:15:12;;;;;;;12.82;2.20;;;;;;;;;;4997527;28;20038;-96
2022/04/30 01:17:39;;;;;;;21.10;2.58;;;;;;;;;;4993609;28;20046;-95
2022/04/30 01:20:15;;;;;;;10.43;2.65;;;;;;;;;;4997009;28;20121;-93
2022/04/30 01:23:06;;;;;;;12.77;2.10;;;;;;;;;;5014843;28;20030;-95
2022/04/30 01:25:33;;;;;;;11.65;2.47;;;;;;;;;;4990632;28;20385;-94
2022/04/30 01:28:18;;;;;;;9.10;2.88;;;;;;;;;;4998472;28;20048;-94
2022/04/30 01:30:44;;;;;;;14.07;2.90;;;;;;;;;;5004142;28;20093;-93
2022/04/30 01:38:58;;;;;;;21.42;3.03;;;;;;;;;;5011945;28;20041;-94
2022/04/30 01:41:24;;;;;;;13.02;2.92;;;;;;;;;;4996838;28;20026;-92
2022/04/30 01:43:53;;;;;;;16.33;2.90;;;;;;;;;;5010853;28;20481;-93
2022/04/30 01:46:20;;;;;;;17.27;3.22;;;;;;;;;;4996314;28;20125;-93
2022/04/30 01:48:54;;;;;;;11.98;2.63;;;;;;;;;;4997528;28;20049;-94
2022/04/30 01:51:21;;;;;;;17.92;3.22;;;;;;;;;;5027007;28;20497;-94
2022/04/30 01:53:48;;;;;;;10.48;2.72;;;;;;;;;;5033872;28;20397;-94
2022/04/30 01:56:14;;;;;;;11.50;2.55;;;;;;;;;;5034894;28;20439;-92
2022/04/30 01:59:04;;;;;;;13.70;2.70;;;;;;;;;;5029110;28;20087;-94
2022/04/30 02:01:32;;;;;;;10.57;2.80;;;;;;;;;;5007470;28;20117;-93
2022/04/30 02:03:59;;;;;;;13.25;2.85;;;;;;;;;;5023171;28;20029;-94
2022/04/30 02:06:28;;;;;;;12.00;2.90;;;;;;;;;;5016720;28;20049;-93
2022/04/30 02:08:56;;;;;;;9.85;2.25;;;;;;;;;;4999874;28;20516;-95
2022/04/30 02:11:23;;;;;;;13.38;2.75;;;;;;;;;;4676616;28;10000136;-94
2022/04/30 02:13:53;;;;;;;10.60;2.15;;;;;;;;;;5015498;28;20037;-94
2022/04/30 02:22:30;;;;;;;13.15;3.05;;;;;;;;;;5029517;28;20388;-90
2022/04/30 02:24:58;;;;;;;13.43;3.00;;;;;;;;;;5015041;28;20066;-90
2022/04/30 02:27:25;;;;;;;15.00;3.10;;;;;;;;;;5025938;28;20038;-90
2022/04/30 02:29:54;;;;;;;14.23;2.60;;;;;;;;;;5014570;28;20061;-90
2022/04/30 02:32:21;;;;;;;17.45;2.97;;;;;;;;;;5016038;28;20041;-90
2022/04/30 02:34:48;;;;;;;13.30;2.45;;;;;;;;;;5015084;28;20044;-91
2022/04/30 02:37:15;;;;;;;12.90;2.92;;;;;;;;;;5013345;28;20111;-91
2022/04/30 02:39:44;;;;;;;18.63;3.22;;;;;;;;;;5014759;28;20828;-91
2022/04/30 02:42:14;;;;;;;12.32;2.38;;;;;;;;;;5011377;28;20140;-90
2022/04/30 02:44:40;;;;;;;12.13;3.25;;;;;;;;;;5027324;28;20052;-90
2022/04/30 02:47:10;;;;;;;16.70;3.58;;;;;;;;;;5013004;28;20037;-90
2022/04/30 02:49:38;;;;;;;11.15;3.05;;;;;;;;;;5030363;28;20480;-90
2022/04/30 02:52:05;;;;;;;18.80;3.78;;;;;;;;;;5026055;28;20053;-89
2022/04/30 02:54:34;;;;;;;18.80;3.05;;;;;;;;;;5011441;28;20100;-91
2022/04/30 02:57:14;;;;;;;15.23;4.10;;;;;;;;;;5009090;28;20033;-91
2022/04/30 03:05:31;;;;;;;14.15;3.17;;;;;;;;;;5033653;28;20037;-91
2022/04/30 03:07:58;;;;;;;14.32;3.80;;;;;;;;;;5015986;28;20495;-91
2022/04/30 03:10:31;;;;;;;16.65;3.78;;;;;;;;;;5033404;28;20124;-91
2022/04/30 03:12:57;;;;;;;19.48;3.95;;;;;;;;;;5009469;28;20030;-91
2022/04/30 03:15:33;;;;;;;21.35;4.72;;;;;;;;;;5012879;28;20495;-91
2022/04/30 03:23:39;;;;;;;16.98;3.92;;;;;;;;;;5036435;28;20405;-90
2022/04/30 03:26:08;;;;;;;15.60;4.45;;;;;;;;;;5014730;28;20030;-90
2022/04/30 03:28:36;;;;;;;15.38;4.80;;;;;;;;;;5015128;28;20029;-91
2022/04/30 03:31:03;;;;;;;14.70;3.75;;;;;;;;;;5037374;28;20033;-91
2022/04/30 03:33:35;;;;;;;14.82;4.50;;;;;;;;;;5019574;28;20480;-90
2022/04/30 03:36:02;;;;;;;15.05;3.72;;;;;;;;;;5030031;28;20033;-90
2022/04/30 03:38:37;;;;;;;12.57;4.15;;;;;;;;;;5037001;28;20029;-90
2022/04/30 03:41:05;;;;;;;17.10;4.63;;;;;;;;;;5036632;28;20036;-90
2022/04/30 03:43:34;;;;;;;14.30;3.90;;;;;;;;;;5032952;28;20092;-90
2022/04/30 03:46:01;;;;;;;18.70;4.30;;;;;;;;;;5015249;28;20030;-90
2022/04/30 03:48:28;;;;;;;30.27;4.88;;;;;;;;;;5013651;28;20099;-89
2022/04/30 03:50:58;;;;;;;33.40;5.88;;;;;;;;;;5032475;28;20063;-89
2022/04/30 03:53:26;;;;;;;38.28;6.55;;;;;;;;;;5014436;28;20552;-89
2022/04/30 03:55:53;;;;;;;32.17;6.35;;;;;;;;;;5015537;28;20038;-88
2022/04/30 03:58:22;;;;;;;27.35;5.75;;;;;;;;;;5015563;28;20034;-89
2022/04/30 04:00:48;;;;;;;28.35;5.95;;;;;;;;;;5017598;28;20061;-89
2022/04/30 04:03:16;;;;;;;23.17;6.22;;;;;;;;;;5035655;28;20029;-89
2022/04/30 04:05:42;;;;;;;18.98;6.07;;;;;;;;;;5018106;28;20125;-90
2022/04/30 04:08:14;;;;;;;26.92;6.47;;;;;;;;;;5019193;28;20031;-91
2022/04/30 04:10:43;;;;;;;29.30;5.15;;;;;;;;;;5017967;28;20037;-90
2022/04/30 04:18:44;;;;;;;33.37;8.37;;;;;;;;;;4685204;28;9999675;-90
2022/04/30 04:21:26;;;;;;;28.83;8.18;;;;;;;;;;5033265;28;20046;-90
2022/04/30 04:26:51;;;;;;;25.33;5.25;;;;;;;;;;5033723;28;20084;-89
2022/04/30 04:29:55;;;;;;;26.67;5.80;;;;;;;;;;5024035;28;20038;-89
2022/04/30 04:32:37;;;;;;;;;;;;;;;;;;;;;
2022/04/30 04:35:14;;;;;;;19.08;6.07;;;;;;;;;;5029568;28;20034;-90
2022/04/30 04:38:02;;;;;;;18.33;5.85;;;;;;;;;;5016862;28;20057;-92
2022/04/30 04:44:02;;;;;;;22.00;6.10;;;;;;;;;;5033734;28;20028;-93
2022/04/30 04:53:26;;;;;;;;;;;;;;;;;;;;;
2022/04/30 04:56:02;;;;;;;13.85;3.90;;;;;;;;;;5030366;28;20037;-91
2022/04/30 04:58:29;;;;;;;12.05;3.13;;;;;;;;;;5010891;28;20046;-93
2022/04/30 05:00:56;;;;;;;14.05;3.33;;;;;;;;;;5015682;28;20029;-93
2022/04/30 05:03:22;;;;;;;13.90;3.15;;;;;;;;;;5014418;28;20091;-93
2022/04/30 05:05:50;;;;;;;15.73;2.67;;;;;;;;;;5009998;28;20079;-92
2022/04/30 05:08:30;;;;;;;17.50;3.38;;;;;;;;;;5034954;28;20037;-93
2022/04/30 05:10:57;;;;;;;17.45;3.60;;;;;;;;;;5033308;28;20065;-94
2022/04/30 05:13:24;;;;;;;14.63;3.13;;;;;;;;;;5016271;28;20034;-93
2022/04/30 05:15:51;;;;;;;15.75;3.67;;;;;;;;;;5029982;28;20061;-92
2022/04/30 05:18:29;;;;;;;22.83;5.03;;;;;;;;;;5015178;28;20029;-93
2022/04/30 05:20:56;;;;;;;22.30;4.40;;;;;;;;;;5014786;28;20086;-93
2022/04/30 05:23:24;;;;;;;21.35;3.90;;;;;;;;;;5017614;28;20029;-93
2022/04/30 05:25:50;;;;;;;18.58;4.82;;;;;;;;;;5027991;28;20147;-92
2022/04/30 05:28:32;;;;;;;15.65;3.58;;;;;;;;;;5032668;28;20470;-92
2022/04/30 05:31:12;;;;;;;11.63;3.60;;;;;;;;;;5015050;28;20086;-93
2022/04/30 05:33:38;;;;;;;13.18;3.17;;;;;;;;;;5009889;28;20037;-93
2022/04/30 05:36:07;;;;;;;15.18;4.20;;;;;;;;;;5017717;28;20071;-92
2022/04/30 05:38:33;;;;;;;16.60;4.13;;;;;;;;;;5014744;28;20437;-92
2022/04/30 05:41:01;;;;;;;17.98;4.22;;;;;;;;;;5015632;28;20033;-91
2022/04/30 05:43:32;;;;;;;15.90;4.50;;;;;;;;;;5015509;28;20033;-89
2022/04/30 05:46:01;;;;;;;19.35;3.60;;;;;;;;;;5028634;28;20030;-89
2022/04/30 05:48:32;;;;;;;18.38;3.97;;;;;;;;;;5017153;28;20037;-90
2022/04/30 05:50:58;;;;;;;15.63;3.80;;;;;;;;;;5030214;28;20122;-89
2022/04/30 05:56:30;;;;;;;18.63;3.75;;;;;;;;;;5035870;28;20539;-95
2022/04/30 05:59:18;;;;;;;20.15;4.78;;;;;;;;;;5017411;28;20072;-94
2022/04/30 06:01:47;;;;;;;16.30;3.63;;;;;;;;;;5031009;28;20069;-94
2022/04/30 06:04:14;;;;;;;18.35;4.32;;;;;;;;;;5018121;28;20465;-95
2022/04/30 06:06:48;;;;;;;18.85;4.00;;;;;;;;;;5034407;28;20033;-95
2022/04/30 06:09:15;;;;;;;16.92;3.85;;;;;;;;;;5017550;28;20089;-95
2022/04/30 06:11:43;;;;;;;17.20;3.90;;;;;;;;;;5017705;28;20038;-93
2022/04/30 07:30:54;;;;;;;17.65;3.55;;;;;;;;;;4992675;28;20396;-94
2022/04/30 07:33:20;;;;;;;14.13;3.40;;;;;;;;;;5015839;28;20093;-94
2022/04/30 07:35:46;;;;;;;27.13;4.15;;;;;;;;;;5013342;28;20041;-94
2022/04/30 07:38:13;;;;;;;17.77;4.28;;;;;;;;;;5005094;28;20085;-94
2022/04/30 07:40:39;;;;;;;17.30;3.40;;;;;;;;;;5026731;28;20037;-96
2022/04/30 07:43:06;;;;;;;17.40;3.40;;;;;;;;;;5017033;28;20408;-94
2022/04/30 07:45:32;;;;;;;24.20;4.47;;;;;;;;;;5026433;28;20026;-96
2022/04/30 07:47:58;;;;;;;20.67;4.68;;;;;;;;;;5016340;28;20120;-94
2022/04/30 07:50:26;;;;;;;20.95;4.13;;;;;;;;;;5031332;28;20030;-92
2022/04/30 07:52:53;;;;;;;17.52;3.90;;;;;;;;;;5030009;28;20048;-94
2022/04/30 07:55:36;;;;;;;17.80;4.30;;;;;;;;;;5032167;28;20037;-94
2022/04/30 07:58:03;;;;;;;14.02;3.78;;;;;;;;;;5021282;28;20373;-95
2022/04/30 08:00:46;;;;;;;20.52;4.05;;;;;;;;;;5008508;28;20116;-94
2022/04/30 08:03:12;;;;;;;13.35;3.35;;;;;;;;;;5012995;28;20083;-94
2022/04/30 08:05:49;;;;;;;18.75;2.97;;;;;;;;;;4689576;28;10000745;-93
2022/04/30 08:08:16;;;;;;;16.20;4.80;;;;;;;;;;5018891;28;20239;-96
2022/04/30 08:10:43;;;;;;;19.50;3.95;;;;;;;;;;5016673;28;20073;-94
2022/04/30 08:16:33;;;;;;;16.60;4.13;;;;;;;;;;5028714;28;20072;-95
2022/04/30 08:19:01;;;;;;;19.02;4.13;;;;;;;;;;5012793;28;20037;-91
2022/04/30 08:21:27;;;;;;;21.88;3.95;;;;;;;;;;5015417;28;20087;-89
2022/04/30 08:24:03;;;;;;;21.48;3.45;;;;;;;;;;5017366;28;20057;-90
2022/04/30 08:26:29;;;;;;;16.15;4.03;;;;;;;;;;5010590;28;20037;-90
2022/04/30 08:28:57;;;;;;;19.80;4.55;;;;;;;;;;5016742;28;20041;-90
2022/04/30 08:31:28;;;;;;;15.43;4.15;;;;;;;;;;5016681;28;20045;-89
2022/04/30 08:33:54;;;;;;;19.13;3.55;;;;;;;;;;5016745;28;20448;-90
2022/04/30 08:36:21;;;;;;;20.85;4.18;;;;;;;;;;5013346;28;20477;-89
2022/04/30 08:38:47;;;;;;;17.73;4.05;;;;;;;;;;5016201;28;20045;-88
2022/04/30 08:41:22;;;;;;;15.63;4.28;;;;;;;;;;5016899;28;20032;-89
2022/04/30 08:43:49;;;;;;;14.77;3.58;;;;;;;;;;5013807;28;20088;-91
2022/04/30 08:46:19;;;;;;;17.42;4.00;;;;;;;;;;5016056;28;20091;-90
2022/04/30 08:48:47;;;;;;;13.25;3.28;;;;;;;;;;5029655;28;20041;-90
2022/04/30 08:51:16;;;;;;;13.95;3.67;;;;;;;;;;4999822;28;20045;-91
2022/04/30 08:53:42;;;;;;;20.63;3.45;;;;;;;;;;5028727;28;20437;-91
2022/04/30 08:56:20;;;;;;;17.42;3.90;;;;;;;;;;5014597;28;20061;-91
2022/04/30 08:58:47;;;;;;;19.83;4.57;;;;;;;;;;5022248;28;20065;-90
2022/04/30 09:01:18;;;;;;;14.65;3.03;;;;;;;;;;5022126;28;20034;-90
2022/04/30 09:03:47;;;;;;;15.27;3.08;;;;;;;;;;5010458;28;20128;-91
2022/04/30 09:12:20;;;;;;;20.92;4.22;;;;;;;;;;5034748;28;20032;-93
2022/04/30 09:18:03;;;;;;;19.50;3.80;;;;;;;;;;5046017;28;20040;-94
2022/04/30 09:23:34;;;;;;;16.55;3.70;;;;;;;;;;4995512;28;20016;-95
2022/04/30 09:26:17;;;;;;;20.35;4.13;;;;;;;;;;4974788;28;20490;-94
2022/04/30 09:28:46;;;;;;;14.85;3.13;;;;;;;;;;4978051;28;20389;-94
2022/04/30 10:44:38;;;;;;;12.45;4.00;;;;;;;;;;5027193;28;20043;-94
2022/04/30 10:47:14;;;;;;;20.08;5.28;;;;;;;;;;5013673;28;20133;-96
2022/04/30 10:49:40;;;;;;;11.98;3.60;;;;;;;;;;5019173;28;20464;-95
2022/04/30 10:52:10;;;;;;;15.88;3.83;;;;;;;;;;5008392;28;20037;-93
2022/04/30 10:54:39;;;;;;;21.17;3.67;;;;;;;;;;5029493;28;20040;-95
2022/04/30 10:57:05;;;;;;;16.52;4.97;;;;;;;;;;5012930;28;20129;-93
2022/04/30 10:59:32;;;;;;;17.00;4.13;;;;;;;;;;5015441;28;20168;-95
2022/04/30 11:01:59;;;;;;;17.55;4.50;;;;;;;;;;5013649;28;20083;-94
2022/04/30 11:04:26;;;;;;;17.92;3.80;;;;;;;;;;5004852;28;20506;-92
2022/04/30 11:06:53;;;;;;;19.55;4.35;;;;;;;;;;5008759;28;20125;-90
2022/04/30 11:09:20;;;;;;;13.82;4.13;;;;;;;;;;5008751;28;20041;-92
2022/04/30 11:11:48;;;;;;;14.98;3.63;;;;;;;;;;5008144;28;20496;-91
2022/04/30 11:14:20;;;;;;;15.85;3.50;;;;;;;;;;4998470;28;20041;-93
2022/04/30 11:16:50;;;;;;;10.40;3.20;;;;;;;;;;5006912;28;20072;-94
2022/04/30 11:19:17;;;;;;;13.98;3.75;;;;;;;;;;5027068;28;20076;-93
2022/04/30 11:21:45;;;;;;;11.73;2.95;;;;;;;;;;5011438;28;20041;-93
2022/04/30 11:24:11;;;;;;;16.70;3.72;;;;;;;;;;5009165;28;20037;-91
2022/04/30 11:26:44;;;;;;;12.27;3.45;;;;;;;;;;5003301;28;20038;-90
2022/04/30 11:29:12;;;;;;;11.90;3.63;;;;;;;;;;5019702;28;20742;-90
2022/04/30 11:31:40;;;;;;;12.07;3.38;;;;;;;;;;5011801;28;20068;-91
2022/04/30 11:34:09;;;;;;;14.13;3.58;;;;;;;;;;5005200;28;20504;-90
2022/04/30 11:36:39;;;;;;;16.63;4.30;;;;;;;;;;5009797;28;20614;-91
2022/04/30 11:39:06;;;;;;;20.65;3.60;;;;;;;;;;5006974;28;20120;-91
2022/04/30 11:41:43;;;;;;;20.58;4.90;;;;;;;;;;5012666;28;20026;-91
2022/04/30 11:44:15;;;;;;;17.88;3.95;;;;;;;;;;5017343;28;20042;-90
2022/04/30 11:46:42;;;;;;;16.15;4.60;;;;;;;;;;5030012;28;20546;-91
2022/04/30 11:49:09;;;;;;;16.88;4.65;;;;;;;;;;5013608;28;20041;-91
2022/04/30 11:51:36;;;;;;;14.30;4.43;;;;;;;;;;5014972;28;20060;-90
2022/04/30 11:54:08;;;;;;;14.85;4.32;;;;;;;;;;5016468;28;20168;-92
2022/04/30 11:56:34;;;;;;;14.65;4.40;;;;;;;;;;5030144;28;20026;-92
2022/04/30 11:59:01;;;;;;;17.20;4.72;;;;;;;;;;5018168;28;20041;-93
2022/04/30 12:01:47;;;;;;;17.90;4.25;;;;;;;;;;5013220;28;20041;-93
2022/04/30 12:04:19;;;;;;;16.90;4.07;;;;;;;;;;5029355;28;20029;-92
2022/04/30 12:06:46;;;;;;;11.15;4.10;;;;;;;;;;5031635;28;20041;-93
2022/04/30 12:09:22;;;;;;;17.25;4.68;;;;;;;;;;5023386;28;20029;-92
2022/04/30 12:11:53;;;;;;;16.42;4.88;;;;;;;;;;5016716;28;20040;-92
2022/04/30 12:14:22;;;;;;;19.15;4.22;;;;;;;;;;5015846;28;20124;-92
2022/04/30 12:16:50;;;;;;;20.58;5.13;;;;;;;;;;5037422;28;20380;-92
2022/04/30 12:25:09;;;;;;;33.92;8.48;;;;;;;;;;5033044;28;20129;-93
2022/04/30 12:27:36;;;;;;;33.22;8.02;;;;;;;;;;5017800;28;20128;-93
2022/04/30 12:30:09;;;;;;;32.72;10.15;;;;;;;;;;5017469;28;20060;-93
2022/04/30 12:32:48;;;;;;;25.23;10.60;;;;;;;;;;5018105;28;20037;-93
2022/04/30 12:35:15;;;;;;;35.67;11.60;;;;;;;;;;5009383;28;20045;-93
2022/04/30 12:37:41;;;;;;;34.40;11.10;;;;;;;;;;5019320;28;20060;-94
2022/04/30 12:40:10;;;;;;;32.95;10.98;;;;;;;;;;5019569;28;20025;-93
2022/04/30 12:42:37;;;;;;;30.73;8.80;;;;;;;;;;5019537;28;20511;-94
2022/04/30 12:45:04;;;;;;;26.58;9.40;;;;;;;;;;5019180;28;20114;-94
2022/04/30 12:47:40;;;;;;;28.30;9.85;;;;;;;;;;5019625;28;20041;-93
2022/04/30 12:50:07;;;;;;;23.00;8.73;;;;;;;;;;5019270;28;20037;-94
2022/04/30 12:52:33;;;;;;;29.52;10.40;;;;;;;;;;5018908;28;20037;-93
2022/04/30 12:58:03;;;;;;;24.63;8.20;;;;;;;;;;5036995;28;20033;-94
2022/04/30 13:03:33;;;;;;;23.13;6.85;;;;;;;;;;5036946;28;20025;-93
2022/04/30 13:14:52;;;;;;;36.83;11.80;;;;;;;;;;5036366;28;20599;-91
2022/04/30 13:17:18;;;;;;;37.15;11.07;;;;;;;;;;5015272;28;20112;-92
2022/04/30 13:19:45;;;;;;;27.45;8.13;;;;;;;;;;5013482;28;20033;-92
2022/04/30 13:22:14;;;;;;;26.95;7.15;;;;;;;;;;5021390;28;20084;-93
2022/04/30 13:24:40;;;;;;;22.15;6.53;;;;;;;;;;5023518;28;20036;-93
2022/04/30 13:27:10;;;;;;;20.70;6.05;;;;;;;;;;5017659;28;20041;-90
2022/04/30 13:29:37;;;;;;;23.30;6.15;;;;;;;;;;5027762;28;20520;-91
2022/04/30 13:32:07;;;;;;;21.60;6.22;;;;;;;;;;5013652;28;20129;-91
2022/04/30 13:34:33;;;;;;;18.63;5.38;;;;;;;;;;5010753;28;20044;-90
2022/04/30 13:37:02;;;;;;;23.15;5.53;;;;;;;;;;5017169;28;20033;-91
2022/04/30 13:39:30;;;;;;;20.35;4.72;;;;;;;;;;5016880;28;20030;-91
2022/04/30 13:41:56;;;;;;;17.88;4.00;;;;;;;;;;5031671;28;20056;-91
2022/04/30 13:44:27;;;;;;;20.27;4.97;;;;;;;;;;5021183;28;20699;-91
2022/04/30 13:46:53;;;;;;;19.13;4.50;;;;;;;;;;5016910;28;20395;-90
2022/04/30 13:49:22;;;;;;;18.50;3.60;;;;;;;;;;5016667;28;20029;-91
2022/04/30 13:51:49;;;;;;;20.85;3.90;;;;;;;;;;5020399;28;20044;-90
2022/04/30 13:54:23;;;;;;;13.43;3.58;;;;;;;;;;5032917;28;20521;-91
2022/04/30 13:56:49;;;;;;;19.92;3.13;;;;;;;;;;5014687;28;20076;-90
2022/04/30 13:59:19;;;;;;;14.13;2.75;;;;;;;;;;5012285;28;20041;-90
2022/04/30 14:01:45;;;;;;;17.05;2.80;;;;;;;;;;5009286;28;20026;-92
2022/04/30 14:04:12;;;;;;;20.65;3.47;;;;;;;;;;5012751;28;20494;-90
2022/04/30 14:06:38;;;;;;;15.75;2.72;;;;;;;;;;5028246;28;20076;-90
2022/04/30 14:09:11;;;;;;;14.35;3.42;;;;;;;;;;5014368;28;20068;-90
2022/04/30 14:11:37;;;;;;;13.23;3.63;;;;;;;;;;5016461;28;20034;-89
2022/04/30 14:16:50;;;;;;;12.68;4.00;;;;;;;;;;5028458;28;20051;-90
2022/04/30 14:19:16;;;;;;;16.33;5.60;;;;;;;;;;5030688;28;20029;-92
2022/04/30 14:21:42;;;;;;;17.90;4.97;;;;;;;;;;5013185;28;20145;-91
2022/04/30 14:24:10;;;;;;;16.55;4.22;;;;;;;;;;5012862;28;20056;-92
2022/04/30 14:26:38;;;;;;;19.65;4.47;;;;;;;;;;5011123;28;20048;-92
2022/04/30 14:29:09;;;;;;;17.23;4.13;;;;;;;;;;5021376;28;20370;-90
2022/04/30 14:31:41;;;;;;;21.48;4.03;;;;;;;;;;5013174;28;20030;-89
2022/04/30 14:34:07;;;;;;;12.90;3.42;;;;;;;;;;5022134;28;20476;-90
2022/04/30 14:36:35;;;;;;;13.57;3.50;;;;;;;;;;5031877;28;20038;-90
2022/04/30 14:39:02;;;;;;;20.75;3.72;;;;;;;;;;5011851;28;20044;-91
2022/04/30 14:41:29;;;;;;;13.15;3.13;;;;;;;;;;5031056;28;20036;-90
2022/04/30 14:43:56;;;;;;;18.55;4.47;;;;;;;;;;5019258;28;20033;-91
2022/04/30 14:46:23;;;;;;;15.27;4.20;;;;;;;;;;5009911;28;20041;-92
2022/04/30 14:48:53;;;;;;;13.38;3.25;;;;;;;;;;5015062;28;20164;-91
2022/04/30 14:51:19;;;;;;;16.70;3.40;;;;;;;;;;5014675;28;20505;-90
2022/04/30 14:53:47;;;;;;;16.50;3.83;;;;;;;;;;5029220;28;20038;-91
2022/04/30 14:56:13;;;;;;;18.23;3.15;;;;;;;;;;5012990;28;20060;-90
2022/04/30 14:58:40;;;;;;;17.02;3.80;;;;;;;;;;5027220;28;20038;-90
2022/04/30 15:01:07;;;;;;;17.73;3.95;;;;;;;;;;5019621;28;20080;-90
2022/04/30 15:03:35;;;;;;;20.05;4.45;;;;;;;;;;5024554;28;20036;-90
2022/04/30 15:06:04;;;;;;;16.40;3.42;;;;;;;;;;5030743;28;20063;-90
2022/04/30 15:08:37;;;;;;;16.35;3.28;;;;;;;;;;5012354;28;20133;-91
2022/04/30 15:11:04;;;;;;;16.67;3.97;;;;;;;;;;5030476;28;20033;-92
2022/04/30 15:13:32;;;;;;;23.13;4.90;;;;;;;;;;5014388;28;20072;-89
2022/04/30 15:15:59;;;;;;;15.50;3.80;;;;;;;;;;5013217;28;20105;-90
2022/04/30 15:18:27;;;;;;;20.00;4.10;;;;;;;;;;5012870;28;20038;-90
2022/04/30 15:20:55;;;;;;;13.32;4.15;;;;;;;;;;5029748;28;20043;-89
2022/04/30 15:23:21;;;;;;;22.45;4.60;;;;;;;;;;5028420;28;20495;-90
2022/04/30 15:25:52;;;;;;;12.63;3.97;;;;;;;;;;5014608;28;20033;-89
2022/04/30 15:28:18;;;;;;;15.43;3.75;;;;;;;;;;5026452;28;20045;-89
2022/04/30 15:30:47;;;;;;;22.60;4.70;;;;;;;;;;5027340;28;20757;-89
2022/04/30 15:33:14;;;;;;;18.05;4.20;;;;;;;;;;5013378;28;20041;-89
2022/04/30 15:35:41;;;;;;;17.67;4.00;;;;;;;;;;5011049;28;20092;-90
2022/04/30 15:38:08;;;;;;;15.63;3.30;;;;;;;;;;5022249;28;20454;-89
2022/04/30 15:40:37;;;;;;;18.33;4.20;;;;;;;;;;5014108;28;20104;-90
2022/04/30 15:43:04;;;;;;;16.80;3.65;;;;;;;;;;5030692;28;20045;-89
2022/04/30 15:45:33;;;;;;;17.52;3.50;;;;;;;;;;5010434;28;20489;-89
2022/04/30 15:53:50;;;;;;;18.98;4.40;;;;;;;;;;5029493;28;20083;-89
2022/04/30 15:56:29;;;;;;;18.17;4.40;;;;;;;;;;5011477;28;20099;-90
2022/04/30 15:58:56;;;;;;;17.50;3.85;;;;;;;;;;5025570;28;20042;-89
2022/04/30 16:01:42;;;;;;;20.85;4.10;;;;;;;;;;5015015;28;20472;-91
2022/04/30 16:04:08;;;;;;;23.10;3.42;;;;;;;;;;5006972;28;20026;-89
2022/04/30 16:06:36;;;;;;;16.35;3.15;;;;;;;;;;5007832;28;20046;-90
2022/04/30 16:09:04;;;;;;;15.32;3.35;;;;;;;;;;5013164;28;20704;-90
2022/04/30 16:11:34;;;;;;;12.43;2.88;;;;;;;;;;4673550;28;9999924;-91
2022/04/30 16:14:06;;;;;;;15.20;3.38;;;;;;;;;;5021813;28;20030;-91
2022/04/30 16:16:41;;;;;;;13.10;3.20;;;;;;;;;;5015079;28;20489;-90
2022/04/30 16:19:10;;;;;;;13.10;3.00;;;;;;;;;;5011039;28;20042;-90
2022/04/30 16:21:37;;;;;;;17.70;4.03;;;;;;;;;;5008394;28;20544;-90
2022/04/30 16:24:04;;;;;;;24.17;3.75;;;;;;;;;;5029631;28;20029;-91
2022/04/30 16:26:31;;;;;;;14.32;3.40;;;;;;;;;;5029873;28;20030;-90
2022/04/30 16:28:58;;;;;;;15.27;2.97;;;;;;;;;;5033138;28;20132;-90
2022/04/30 16:31:25;;;;;;;14.57;3.20;;;;;;;;;;5034990;28;20551;-89
2022/04/30 16:33:51;;;;;;;12.30;3.28;;;;;;;;;;5029117;28;20033;-87
2022/04/30 16:36:20;;;;;;;14.38;3.17;;;;;;;;;;5026938;28;20030;-90
2022/04/30 16:38:47;;;;;;;13.50;3.22;;;;;;;;;;5017830;28;20485;-90
2022/04/30 16:41:17;;;;;;;11.50;2.88;;;;;;;;;;5034542;28;20029;-90
2022/04/30 16:43:44;;;;;;;13.20;4.25;;;;;;;;;;5033823;28;20053;-90
2022/04/30 16:46:10;;;;;;;13.18;3.88;;;;;;;;;;5015810;28;20468;-90
2022/04/30 16:48:37;;;;;;;11.77;3.75;;;;;;;;;;5011633;28;20038;-90
2022/04/30 16:54:01;;;;;;;13.93;3.33;;;;;;;;;;4685991;28;9999911;-90
2022/04/30 16:59:16;;;;;;;11.52;3.58;;;;;;;;;;5026382;28;20380;-89
2022/04/30 17:01:43;;;;;;;16.15;3.53;;;;;;;;;;5007381;28;20058;-91
2022/04/30 17:04:09;;;;;;;10.68;3.35;;;;;;;;;;5017159;28;20030;-91
2022/04/30 17:06:36;;;;;;;10.80;3.03;;;;;;;;;;5036165;28;20029;-90
2022/04/30 17:09:05;;;;;;;17.52;3.45;;;;;;;;;;4680936;28;10000180;-89
2022/04/30 17:11:32;;;;;;;11.10;2.78;;;;;;;;;;5011831;28;20030;-91
2022/04/30 17:14:17;;;;;;;15.32;3.40;;;;;;;;;;5015846;28;20124;-90
2022/04/30 17:16:44;;;;;;;12.88;3.42;;;;;;;;;;5016865;28;20032;-90
2022/04/30 17:19:35;;;;;;;12.63;3.08;;;;;;;;;;5015512;28;20040;-90
2022/04/30 17:22:09;;;;;;;10.73;3.03;;;;;;;;;;4969993;28;20039;-90
2022/04/30 17:24:35;;;;;;;10.95;3.03;;;;;;;;;;5025593;28;20404;-91
2022/04/30 17:27:27;;;;;;;12.55;3.20;;;;;;;;;;5017159;28;20029;-91
2022/04/30 17:29:53;;;;;;;15.98;3.50;;;;;;;;;;4991610;28;20396;-91
2022/04/30 17:38:04;;;;;;;19.25;4.97;;;;;;;;;;5028758;28;21544;-92
2022/04/30 17:40:31;;;;;;;18.80;5.30;;;;;;;;;;5032028;28;20026;-90
2022/04/30 17:42:58;;;;;;;10.48;3.55;;;;;;;;;;5016199;28;20052;-91
2022/04/30 17:45:25;;;;;;;9.80;2.25;;;;;;;;;;5017301;28;20507;-91
2022/04/30 17:47:52;;;;;;;14.25;2.25;;;;;;;;;;4667185;28;10000430;-92
2022/04/30 17:50:21;;;;;;;16.73;2.65;;;;;;;;;;5031022;28;20068;-92
2022/04/30 17:52:49;;;;;;;14.88;2.70;;;;;;;;;;5030330;28;20033;-92
2022/04/30 17:55:16;;;;;;;13.68;2.38;;;;;;;;;;5031005;28;20190;-92
2022/04/30 17:57:51;;;;;;;14.93;2.10;;;;;;;;;;5017819;28;20037;-91
2022/04/30 18:00:18;;;;;;;11.38;2.53;;;;;;;;;;5016247;28;20038;-91
2022/04/30 18:02:48;;;;;;;13.07;2.88;;;;;;;;;;5015696;28;20117;-91
2022/04/30 18:05:15;;;;;;;13.77;3.17;;;;;;;;;;5016011;28;20029;-91
2022/04/30 18:10:45;;;;;;;11.68;3.05;;;;;;;;;;5029793;28;20064;-90
2022/04/30 18:13:13;;;;;;;14.93;3.40;;;;;;;;;;5004238;28;20038;-91
2022/04/30 18:15:39;;;;;;;17.73;2.95;;;;;;;;;;5015078;28;20060;-91
2022/04/30 18:18:07;;;;;;;10.32;2.53;;;;;;;;;;5015162;28;20048;-91
2022/04/30 18:20:36;;;;;;;13.80;2.67;;;;;;;;;;5013893;28;20088;-91
2022/04/30 18:23:02;;;;;;;11.52;2.80;;;;;;;;;;5016757;28;20088;-91
2022/04/30 18:25:29;;;;;;;10.70;2.03;;;;;;;;;;5015342;28;20508;-90
2022/04/30 18:27:57;;;;;;;11.32;2.65;;;;;;;;;;5030833;28;20037;-91
2022/04/30 18:30:23;;;;;;;12.02;3.28;;;;;;;;;;5032487;28;20099;-90
2022/04/30 18:32:50;;;;;;;9.75;2.58;;;;;;;;;;5026995;28;20392;-90
2022/04/30 18:35:17;;;;;;;9.90;2.20;;;;;;;;;;5008865;28;20404;-90
2022/04/30 18:37:43;;;;;;;13.05;2.75;;;;;;;;;;5012035;28;20033;-91
2022/04/30 18:40:26;;;;;;;12.40;2.38;;;;;;;;;;5011881;28;20029;-91
2022/04/30 18:42:52;;;;;;;11.18;2.88;;;;;;;;;;5025609;28;20037;-90
2022/04/30 18:45:19;;;;;;;8.35;2.22;;;;;;;;;;5012062;28;21410;-90
2022/04/30 18:50:42;;;;;;;14.43;2.38;;;;;;;;;;5032350;28;20571;-91
2022/04/30 18:53:15;;;;;;;15.85;2.90;;;;;;;;;;5013320;28;20044;-90
2022/04/30 19:01:11;;;;;;;10.18;2.53;;;;;;;;;;5032045;28;20029;-90
2022/04/30 19:03:44;;;;;;;14.40;1.90;;;;;;;;;;5016456;28;20033;-89
2022/04/30 19:06:10;;;;;;;11.65;2.38;;;;;;;;;;5009313;28;20038;-90
2022/04/30 19:08:44;;;;;;;8.65;1.63;;;;;;;;;;5030441;28;20029;-90
2022/04/30 19:11:11;;;;;;;10.95;2.53;;;;;;;;;;5013270;28;20543;-90
2022/04/30 19:13:38;;;;;;;14.07;2.22;;;;;;;;;;5020437;28;20097;-90
2022/04/30 19:16:09;;;;;;;11.45;2.25;;;;;;;;;;5014969;28;20068;-90
2022/04/30 19:18:36;;;;;;;11.15;1.98;;;;;;;;;;5013494;28;20072;-90
2022/04/30 19:21:38;;;;;;;10.95;2.10;;;;;;;;;;5028598;28;20526;-90
2022/04/30 19:24:07;;;;;;;11.63;2.75;;;;;;;;;;5015849;28;20457;-90